sensor_id;sensor_type;location;lat;lon;timestamp;temperature;humidity
21207;DHT22;10761;48.532;8.026;2023-09-19T00:00:22;16.70;99.90
21207;DHT22;10761;48.532;8.026;2023-09-19T00:02:55;16.80;99.90
21207;DHT22;10761;48.532;8.026;2023-09-19T00:05:27;16.70;99.90
21207;DHT22;10761;48.532;8.026;2023-09-19T00:07:55;16.80;99.90
21207;DHT22;10761;48.532;8.026;2023-09-19T00:10:24;16.80;99.90
21207;DHT22;10761;48.532;8.026;2023-09-19T00:12:59;16.80;99.90
21207;DHT22;10761;48.532;8.026;2023-09-19T00:15:26;17.00;99.90
21207;DHT22;10761;48.532;8.026;2023-09-19T00:17:54;16.90;99.90
21207;DHT22;10761;48.532;8.026;2023-09-19T00:20:20;16.90;99.90
21207;DHT22;10761;48.532;8.026;2023-09-19T00:22:49;17.00;99.90
21207;DHT22;10761;48.532;8.026;2023-09-19T00:25:17;16.90;99.90
21207;DHT22;10761;48.532;8.026;2023-09-19T00:27:43;16.90;99.90
21207;DHT22;10761;48.532;8.026;2023-09-19T00:30:11;17.00;99.90
21207;DHT22;10761;48.532;8.026;2023-09-19T00:32:50;17.00;99.90
21207;DHT22;10761;48.532;8.026;2023-09-19T00:35:20;17.10;99.90
21207;DHT22;10761;48.532;8.026;2023-09-19T00:37:49;17.10;99.90
21207;DHT22;10761;48.532;8.026;2023-09-19T00:40:15;17.10;99.90
21207;DHT22;10761;48.532;8.026;2023-09-19T00:42:42;17.20;99.90
21207;DHT22;10761;48.532;8.026;2023-09-19T00:45:09;17.20;99.90
21207;DHT22;10761;48.532;8.026;2023-09-19T00:47:38;17.20;99.90
21207;DHT22;10761;48.532;8.026;2023-09-19T00:50:05;17.20;99.90
21207;DHT22;10761;48.532;8.026;2023-09-19T00:52:34;17.20;99.90
21207;DHT22;10761;48.532;8.026;2023-09-19T00:55:02;17.20;99.90
21207;DHT22;10761;48.532;8.026;2023-09-19T00:57:29;17.20;99.90
21207;DHT22;10761;48.532;8.026;2023-09-19T00:59:55;17.20;99.90
21207;DHT22;10761;48.532;8.026;2023-09-19T01:02:22;17.20;99.90
21207;DHT22;10761;48.532;8.026;2023-09-19T01:04:48;17.20;99.90
21207;DHT22;10761;48.532;8.026;2023-09-19T01:07:14;17.30;99.90
21207;DHT22;10761;48.532;8.026;2023-09-19T01:09:43;17.30;99.90
21207;DHT22;10761;48.532;8.026;2023-09-19T01:12:10;17.30;99.90
21207;DHT22;10761;48.532;8.026;2023-09-19T01:17:29;17.30;99.90
21207;DHT22;10761;48.532;8.026;2023-09-19T01:20:20;17.30;99.90
21207;DHT22;10761;48.532;8.026;2023-09-19T01:23:10;17.30;99.90
21207;DHT22;10761;48.532;8.026;2023-09-19T01:31:20;17.40;99.90
21207;DHT22;10761;48.532;8.026;2023-09-19T01:34:00;17.40;99.90
21207;DHT22;10761;48.532;8.026;2023-09-19T01:36:35;17.40;99.90
21207;DHT22;10761;48.532;8.026;2023-09-19T01:39:04;17.40;99.90
21207;DHT22;10761;48.532;8.026;2023-09-19T01:47:33;17.50;99.90
21207;DHT22;10761;48.532;8.026;2023-09-19T01:52:49;17.50;99.90
21207;DHT22;10761;48.532;8.026;2023-09-19T01:55:20;17.50;99.90
21207;DHT22;10761;48.532;8.026;2023-09-19T02:00:33;17.50;99.90
21207;DHT22;10761;48.532;8.026;2023-09-19T02:03:00;17.50;99.90
21207;DHT22;10761;48.532;8.026;2023-09-19T02:05:28;17.50;99.90
21207;DHT22;10761;48.532;8.026;2023-09-19T02:07:53;17.50;99.90
21207;DHT22;10761;48.532;8.026;2023-09-19T02:10:20;17.50;99.90
21207;DHT22;10761;48.532;8.026;2023-09-19T02:12:45;17.50;99.90
21207;DHT22;10761;48.532;8.026;2023-09-19T02:15:11;17.50;99.90
21207;DHT22;10761;48.532;8.026;2023-09-19T02:17:37;17.40;99.90
21207;DHT22;10761;48.532;8.026;2023-09-19T02:20:03;17.50;99.90
21207;DHT22;10761;48.532;8.026;2023-09-19T02:22:36;17.50;99.90
21207;DHT22;10761;48.532;8.026;2023-09-19T02:25:02;17.50;99.90
21207;DHT22;10761;48.532;8.026;2023-09-19T02:27:30;17.50;99.90
21207;DHT22;10761;48.532;8.026;2023-09-19T02:29:56;17.40;99.90
21207;DHT22;10761;48.532;8.026;2023-09-19T02:32:22;17.50;99.90
21207;DHT22;10761;48.532;8.026;2023-09-19T02:34:48;17.40;99.90
21207;DHT22;10761;48.532;8.026;2023-09-19T02:37:14;17.40;99.90
21207;DHT22;10761;48.532;8.026;2023-09-19T02:39:41;17.40;99.90
21207;DHT22;10761;48.532;8.026;2023-09-19T02:42:07;17.40;99.90
21207;DHT22;10761;48.532;8.026;2023-09-19T02:44:32;17.30;99.90
21207;DHT22;10761;48.532;8.026;2023-09-19T02:46:59;17.30;99.90
21207;DHT22;10761;48.532;8.026;2023-09-19T02:49:24;17.30;99.90
21207;DHT22;10761;48.532;8.026;2023-09-19T02:51:50;17.30;99.90
21207;DHT22;10761;48.532;8.026;2023-09-19T02:54:17;17.30;99.90
21207;DHT22;10761;48.532;8.026;2023-09-19T02:56:43;17.20;99.90
21207;DHT22;10761;48.532;8.026;2023-09-19T02:59:09;17.20;99.90
21207;DHT22;10761;48.532;8.026;2023-09-19T03:01:35;17.20;99.90
21207;DHT22;10761;48.532;8.026;2023-09-19T03:04:03;17.20;99.90
21207;DHT22;10761;48.532;8.026;2023-09-19T03:06:33;17.20;99.90
21207;DHT22;10761;48.532;8.026;2023-09-19T03:08:59;17.20;99.90
21207;DHT22;10761;48.532;8.026;2023-09-19T03:11:25;17.20;99.90
21207;DHT22;10761;48.532;8.026;2023-09-19T03:13:52;17.20;99.90
21207;DHT22;10761;48.532;8.026;2023-09-19T03:16:18;17.20;99.90
21207;DHT22;10761;48.532;8.026;2023-09-19T03:18:47;17.20;99.90
21207;DHT22;10761;48.532;8.026;2023-09-19T03:21:17;17.20;99.90
21207;DHT22;10761;48.532;8.026;2023-09-19T03:23:43;17.20;99.90
21207;DHT22;10761;48.532;8.026;2023-09-19T03:26:12;17.20;99.90
21207;DHT22;10761;48.532;8.026;2023-09-19T03:28:39;17.20;99.90
21207;DHT22;10761;48.532;8.026;2023-09-19T03:31:06;17.20;99.90
21207;DHT22;10761;48.532;8.026;2023-09-19T03:33:32;17.20;99.90
21207;DHT22;10761;48.532;8.026;2023-09-19T03:36:00;17.20;99.90
21207;DHT22;10761;48.532;8.026;2023-09-19T03:38:27;17.20;99.90
21207;DHT22;10761;48.532;8.026;2023-09-19T03:40:54;17.10;99.90
21207;DHT22;10761;48.532;8.026;2023-09-19T03:43:19;17.00;99.90
21207;DHT22;10761;48.532;8.026;2023-09-19T03:45:45;16.90;99.90
21207;DHT22;10761;48.532;8.026;2023-09-19T03:48:12;16.80;99.90
21207;DHT22;10761;48.532;8.026;2023-09-19T03:50:38;16.70;99.90
21207;DHT22;10761;48.532;8.026;2023-09-19T03:53:04;16.60;99.90
21207;DHT22;10761;48.532;8.026;2023-09-19T03:55:30;16.50;99.90
21207;DHT22;10761;48.532;8.026;2023-09-19T03:58:04;16.50;99.90
21207;DHT22;10761;48.532;8.026;2023-09-19T04:00:30;16.50;99.90
21207;DHT22;10761;48.532;8.026;2023-09-19T04:02:55;16.50;99.90
21207;DHT22;10761;48.532;8.026;2023-09-19T04:05:22;16.50;99.90
21207;DHT22;10761;48.532;8.026;2023-09-19T04:07:48;16.50;99.90
21207;DHT22;10761;48.532;8.026;2023-09-19T04:10:15;16.50;99.90
21207;DHT22;10761;48.532;8.026;2023-09-19T04:12:41;16.50;99.90
21207;DHT22;10761;48.532;8.026;2023-09-19T04:15:15;16.50;99.90
21207;DHT22;10761;48.532;8.026;2023-09-19T04:17:41;16.50;99.90
21207;DHT22;10761;48.532;8.026;2023-09-19T04:20:07;16.50;99.90
21207;DHT22;10761;48.532;8.026;2023-09-19T04:22:33;16.30;99.90
21207;DHT22;10761;48.532;8.026;2023-09-19T04:24:59;16.30;99.90
21207;DHT22;10761;48.532;8.026;2023-09-19T04:27:25;16.20;99.90
21207;DHT22;10761;48.532;8.026;2023-09-19T04:29:50;16.20;99.90
21207;DHT22;10761;48.532;8.026;2023-09-19T04:32:16;16.10;99.90
21207;DHT22;10761;48.532;8.026;2023-09-19T04:34:42;16.00;99.90
21207;DHT22;10761;48.532;8.026;2023-09-19T04:37:08;16.00;99.90
21207;DHT22;10761;48.532;8.026;2023-09-19T04:39:34;15.90;99.90
21207;DHT22;10761;48.532;8.026;2023-09-19T04:41:59;15.90;99.90
21207;DHT22;10761;48.532;8.026;2023-09-19T04:44:25;15.90;99.90
21207;DHT22;10761;48.532;8.026;2023-09-19T04:46:51;15.90;99.90
21207;DHT22;10761;48.532;8.026;2023-09-19T04:49:16;15.90;99.90
21207;DHT22;10761;48.532;8.026;2023-09-19T04:51:42;16.00;99.90
21207;DHT22;10761;48.532;8.026;2023-09-19T04:54:08;16.00;99.90
21207;DHT22;10761;48.532;8.026;2023-09-19T04:56:34;16.00;99.90
21207;DHT22;10761;48.532;8.026;2023-09-19T04:59:00;16.00;99.90
21207;DHT22;10761;48.532;8.026;2023-09-19T05:01:25;16.10;99.90
21207;DHT22;10761;48.532;8.026;2023-09-19T05:03:51;16.10;99.90
21207;DHT22;10761;48.532;8.026;2023-09-19T05:06:20;16.10;99.90
21207;DHT22;10761;48.532;8.026;2023-09-19T05:08:47;16.10;99.90
21207;DHT22;10761;48.532;8.026;2023-09-19T05:11:19;16.10;99.90
21207;DHT22;10761;48.532;8.026;2023-09-19T05:13:48;16.10;99.90
21207;DHT22;10761;48.532;8.026;2023-09-19T05:16:16;16.10;99.90
21207;DHT22;10761;48.532;8.026;2023-09-19T05:18:41;16.10;99.90
21207;DHT22;10761;48.532;8.026;2023-09-19T05:21:07;16.10;99.90
21207;DHT22;10761;48.532;8.026;2023-09-19T05:23:33;16.10;99.90
21207;DHT22;10761;48.532;8.026;2023-09-19T05:25:59;16.10;99.90
21207;DHT22;10761;48.532;8.026;2023-09-19T05:28:26;16.10;99.90
21207;DHT22;10761;48.532;8.026;2023-09-19T05:30:52;16.10;99.90
21207;DHT22;10761;48.532;8.026;2023-09-19T05:33:19;16.10;99.90
21207;DHT22;10761;48.532;8.026;2023-09-19T05:35:44;16.10;99.90
21207;DHT22;10761;48.532;8.026;2023-09-19T05:38:12;16.10;99.90
21207;DHT22;10761;48.532;8.026;2023-09-19T05:40:39;16.10;99.90
21207;DHT22;10761;48.532;8.026;2023-09-19T05:43:08;16.10;99.90
21207;DHT22;10761;48.532;8.026;2023-09-19T05:45:34;16.10;99.90
21207;DHT22;10761;48.532;8.026;2023-09-19T05:48:12;16.10;99.90
21207;DHT22;10761;48.532;8.026;2023-09-19T05:50:38;16.10;99.90
21207;DHT22;10761;48.532;8.026;2023-09-19T05:53:04;16.10;99.90
21207;DHT22;10761;48.532;8.026;2023-09-19T05:55:30;16.20;99.90
21207;DHT22;10761;48.532;8.026;2023-09-19T05:57:56;16.20;99.90
21207;DHT22;10761;48.532;8.026;2023-09-19T06:00:23;16.20;99.90
21207;DHT22;10761;48.532;8.026;2023-09-19T06:02:53;16.20;99.90
21207;DHT22;10761;48.532;8.026;2023-09-19T06:05:19;16.20;99.90
21207;DHT22;10761;48.532;8.026;2023-09-19T06:07:45;16.30;99.90
21207;DHT22;10761;48.532;8.026;2023-09-19T06:10:12;16.30;99.90
21207;DHT22;10761;48.532;8.026;2023-09-19T06:12:47;16.30;99.90
21207;DHT22;10761;48.532;8.026;2023-09-19T06:15:14;16.40;99.90
21207;DHT22;10761;48.532;8.026;2023-09-19T06:17:49;16.40;99.90
21207;DHT22;10761;48.532;8.026;2023-09-19T06:20:15;16.40;99.90
21207;DHT22;10761;48.532;8.026;2023-09-19T06:22:43;16.40;99.90
21207;DHT22;10761;48.532;8.026;2023-09-19T06:25:09;16.40;99.90
21207;DHT22;10761;48.532;8.026;2023-09-19T06:27:40;16.40;99.90
21207;DHT22;10761;48.532;8.026;2023-09-19T06:30:08;16.40;99.90
21207;DHT22;10761;48.532;8.026;2023-09-19T06:32:42;16.50;99.90
21207;DHT22;10761;48.532;8.026;2023-09-19T06:35:10;16.50;99.90
21207;DHT22;10761;48.532;8.026;2023-09-19T06:37:37;16.50;99.90
21207;DHT22;10761;48.532;8.026;2023-09-19T06:40:09;16.50;99.90
21207;DHT22;10761;48.532;8.026;2023-09-19T06:42:41;16.50;99.90
21207;DHT22;10761;48.532;8.026;2023-09-19T06:45:08;16.50;99.90
21207;DHT22;10761;48.532;8.026;2023-09-19T06:47:36;16.50;99.90
21207;DHT22;10761;48.532;8.026;2023-09-19T06:50:02;16.50;99.90
21207;DHT22;10761;48.532;8.026;2023-09-19T06:52:28;16.50;99.90
21207;DHT22;10761;48.532;8.026;2023-09-19T06:54:53;16.60;99.90
21207;DHT22;10761;48.532;8.026;2023-09-19T06:57:19;16.70;99.90
21207;DHT22;10761;48.532;8.026;2023-09-19T06:59:45;16.70;99.90
21207;DHT22;10761;48.532;8.026;2023-09-19T07:02:11;16.70;99.90
21207;DHT22;10761;48.532;8.026;2023-09-19T07:04:37;16.70;99.90
21207;DHT22;10761;48.532;8.026;2023-09-19T07:07:02;16.80;99.90
21207;DHT22;10761;48.532;8.026;2023-09-19T07:09:29;17.00;99.90
21207;DHT22;10761;48.532;8.026;2023-09-19T07:11:54;17.10;99.90
21207;DHT22;10761;48.532;8.026;2023-09-19T07:14:20;17.20;99.90
21207;DHT22;10761;48.532;8.026;2023-09-19T07:16:46;17.40;99.90
21207;DHT22;10761;48.532;8.026;2023-09-19T07:19:13;17.40;99.90
21207;DHT22;10761;48.532;8.026;2023-09-19T07:21:40;17.50;99.90
21207;DHT22;10761;48.532;8.026;2023-09-19T07:24:06;17.50;99.90
21207;DHT22;10761;48.532;8.026;2023-09-19T07:26:33;17.60;99.90
21207;DHT22;10761;48.532;8.026;2023-09-19T07:28:59;17.80;99.90
21207;DHT22;10761;48.532;8.026;2023-09-19T07:31:25;18.20;19.00
21207;DHT22;10761;48.532;8.026;2023-09-19T07:33:52;18.70;5.80
21207;DHT22;10761;48.532;8.026;2023-09-19T07:36:18;19.30;1.00
21207;DHT22;10761;48.532;8.026;2023-09-19T07:38:45;19.70;1.00
21207;DHT22;10761;48.532;8.026;2023-09-19T07:41:10;19.60;1.00
21207;DHT22;10761;48.532;8.026;2023-09-19T07:43:36;19.60;1.00
21207;DHT22;10761;48.532;8.026;2023-09-19T07:46:07;19.70;1.00
21207;DHT22;10761;48.532;8.026;2023-09-19T07:48:37;19.80;99.90
21207;DHT22;10761;48.532;8.026;2023-09-19T07:51:07;19.60;99.90
21207;DHT22;10761;48.532;8.026;2023-09-19T07:53:34;19.40;1.00
21207;DHT22;10761;48.532;8.026;2023-09-19T07:56:08;19.50;1.00
21207;DHT22;10761;48.532;8.026;2023-09-19T07:58:34;19.60;99.90
21207;DHT22;10761;48.532;8.026;2023-09-19T08:01:07;20.00;99.90
21207;DHT22;10761;48.532;8.026;2023-09-19T08:03:34;20.30;1.00
21207;DHT22;10761;48.532;8.026;2023-09-19T08:06:00;20.10;1.00
21207;DHT22;10761;48.532;8.026;2023-09-19T08:08:26;20.50;1.00
21207;DHT22;10761;48.532;8.026;2023-09-19T08:10:53;20.30;99.90
21207;DHT22;10761;48.532;8.026;2023-09-19T08:13:21;20.40;1.00
21207;DHT22;10761;48.532;8.026;2023-09-19T08:15:47;20.40;1.00
21207;DHT22;10761;48.532;8.026;2023-09-19T08:18:14;20.20;1.00
21207;DHT22;10761;48.532;8.026;2023-09-19T08:20:39;20.20;1.00
21207;DHT22;10761;48.532;8.026;2023-09-19T08:23:07;20.10;1.00
21207;DHT22;10761;48.532;8.026;2023-09-19T08:25:33;20.10;1.00
21207;DHT22;10761;48.532;8.026;2023-09-19T08:28:00;20.10;1.00
21207;DHT22;10761;48.532;8.026;2023-09-19T08:30:27;19.90;1.00
21207;DHT22;10761;48.532;8.026;2023-09-19T08:32:59;19.90;1.00
21207;DHT22;10761;48.532;8.026;2023-09-19T08:35:29;20.10;53.10
21207;DHT22;10761;48.532;8.026;2023-09-19T08:37:54;20.00;99.90
21207;DHT22;10761;48.532;8.026;2023-09-19T08:40:21;19.90;1.00
21207;DHT22;10761;48.532;8.026;2023-09-19T08:42:50;20.10;99.90
21207;DHT22;10761;48.532;8.026;2023-09-19T08:45:16;20.40;1.00
21207;DHT22;10761;48.532;8.026;2023-09-19T08:48:31;20.40;1.00
21207;DHT22;10761;48.532;8.026;2023-09-19T08:50:31;20.70;1.00
21207;DHT22;10761;48.532;8.026;2023-09-19T08:53:01;20.70;1.00
21207;DHT22;10761;48.532;8.026;2023-09-19T08:55:28;20.70;1.00
21207;DHT22;10761;48.532;8.026;2023-09-19T08:58:03;21.30;1.00
21207;DHT22;10761;48.532;8.026;2023-09-19T09:00:30;21.40;1.00
21207;DHT22;10761;48.532;8.026;2023-09-19T09:02:57;20.70;99.90
21207;DHT22;10761;48.532;8.026;2023-09-19T09:05:24;20.10;99.90
21207;DHT22;10761;48.532;8.026;2023-09-19T09:07:50;20.10;1.00
21207;DHT22;10761;48.532;8.026;2023-09-19T09:10:22;19.90;99.90
21207;DHT22;10761;48.532;8.026;2023-09-19T09:12:52;19.80;1.00
21207;DHT22;10761;48.532;8.026;2023-09-19T09:15:20;19.70;1.00
21207;DHT22;10761;48.532;8.026;2023-09-19T09:17:48;19.90;1.00
21207;DHT22;10761;48.532;8.026;2023-09-19T09:20:18;20.20;99.90
21207;DHT22;10761;48.532;8.026;2023-09-19T09:22:52;20.30;99.90
21207;DHT22;10761;48.532;8.026;2023-09-19T09:25:19;20.30;1.00
21207;DHT22;10761;48.532;8.026;2023-09-19T09:27:58;20.20;1.00
21207;DHT22;10761;48.532;8.026;2023-09-19T09:30:36;19.90;1.00
21207;DHT22;10761;48.532;8.026;2023-09-19T09:33:13;20.00;1.00
21207;DHT22;10761;48.532;8.026;2023-09-19T09:35:53;20.40;99.90
21207;DHT22;10761;48.532;8.026;2023-09-19T09:38:20;20.70;1.00
21207;DHT22;10761;48.532;8.026;2023-09-19T09:40:47;20.60;99.90
21207;DHT22;10761;48.532;8.026;2023-09-19T09:43:35;20.40;99.90
21207;DHT22;10761;48.532;8.026;2023-09-19T09:48:55;20.30;1.00
21207;DHT22;10761;48.532;8.026;2023-09-19T09:51:45;20.40;1.00
21207;DHT22;10761;48.532;8.026;2023-09-19T09:54:23;20.70;1.00
21207;DHT22;10761;48.532;8.026;2023-09-19T09:56:59;20.90;99.90
21207;DHT22;10761;48.532;8.026;2023-09-19T09:59:56;21.00;1.00
21207;DHT22;10761;48.532;8.026;2023-09-19T10:02:37;21.40;1.00
21207;DHT22;10761;48.532;8.026;2023-09-19T10:05:21;21.80;1.00
21207;DHT22;10761;48.532;8.026;2023-09-19T10:07:52;22.40;99.90
21207;DHT22;10761;48.532;8.026;2023-09-19T10:10:34;22.70;99.90
21207;DHT22;10761;48.532;8.026;2023-09-19T10:13:20;22.70;92.50
21207;DHT22;10761;48.532;8.026;2023-09-19T10:15:50;23.10;1.00
21207;DHT22;10761;48.532;8.026;2023-09-19T10:18:26;23.20;1.00
21207;DHT22;10761;48.532;8.026;2023-09-19T10:20:53;23.10;1.00
21207;DHT22;10761;48.532;8.026;2023-09-19T10:23:21;23.00;1.00
21207;DHT22;10761;48.532;8.026;2023-09-19T10:25:51;23.00;1.00
21207;DHT22;10761;48.532;8.026;2023-09-19T10:28:18;23.00;1.00
21207;DHT22;10761;48.532;8.026;2023-09-19T10:30:53;22.90;1.00
21207;DHT22;10761;48.532;8.026;2023-09-19T10:33:24;22.90;1.00
21207;DHT22;10761;48.532;8.026;2023-09-19T10:35:58;22.90;1.00
21207;DHT22;10761;48.532;8.026;2023-09-19T10:38:26;23.10;1.00
21207;DHT22;10761;48.532;8.026;2023-09-19T10:40:55;23.50;1.00
21207;DHT22;10761;48.532;8.026;2023-09-19T10:43:26;23.50;1.00
21207;DHT22;10761;48.532;8.026;2023-09-19T10:46:00;23.40;1.00
21207;DHT22;10761;48.532;8.026;2023-09-19T10:48:26;23.00;1.00
21207;DHT22;10761;48.532;8.026;2023-09-19T10:51:09;22.50;1.00
21207;DHT22;10761;48.532;8.026;2023-09-19T10:53:55;22.10;1.00
21207;DHT22;10761;48.532;8.026;2023-09-19T10:56:30;21.70;1.00
21207;DHT22;10761;48.532;8.026;2023-09-19T10:59:18;21.30;1.00
21207;DHT22;10761;48.532;8.026;2023-09-19T11:07:09;21.40;1.00
21207;DHT22;10761;48.532;8.026;2023-09-19T11:09:52;22.00;1.00
21207;DHT22;10761;48.532;8.026;2023-09-19T11:14:56;22.30;1.00
21207;DHT22;10761;48.532;8.026;2023-09-19T11:30:35;21.30;1.00
21207;DHT22;10761;48.532;8.026;2023-09-19T11:33:18;21.30;1.00
21207;DHT22;10761;48.532;8.026;2023-09-19T11:36:07;21.40;1.00
21207;DHT22;10761;48.532;8.026;2023-09-19T11:49:18;23.60;1.00
21207;DHT22;10761;48.532;8.026;2023-09-19T11:51:47;23.30;1.00
21207;DHT22;10761;48.532;8.026;2023-09-19T11:54:16;23.20;1.00
21207;DHT22;10761;48.532;8.026;2023-09-19T11:56:44;23.50;1.00
21207;DHT22;10761;48.532;8.026;2023-09-19T11:59:11;23.70;99.90
21207;DHT22;10761;48.532;8.026;2023-09-19T12:01:40;24.00;99.90
21207;DHT22;10761;48.532;8.026;2023-09-19T12:04:11;24.30;1.00
21207;DHT22;10761;48.532;8.026;2023-09-19T12:06:37;24.70;99.90
21207;DHT22;10761;48.532;8.026;2023-09-19T12:09:12;24.80;99.90
21207;DHT22;10761;48.532;8.026;2023-09-19T12:11:42;25.30;99.90
21207;DHT22;10761;48.532;8.026;2023-09-19T12:14:11;25.50;99.90
21207;DHT22;10761;48.532;8.026;2023-09-19T12:16:37;25.40;99.90
21207;DHT22;10761;48.532;8.026;2023-09-19T12:19:19;25.40;99.90
21207;DHT22;10761;48.532;8.026;2023-09-19T12:21:54;25.60;99.90
21207;DHT22;10761;48.532;8.026;2023-09-19T12:24:22;26.30;99.90
21207;DHT22;10761;48.532;8.026;2023-09-19T12:26:47;25.70;99.90
21207;DHT22;10761;48.532;8.026;2023-09-19T12:29:19;24.50;99.90
21207;DHT22;10761;48.532;8.026;2023-09-19T12:31:49;23.80;99.90
21207;DHT22;10761;48.532;8.026;2023-09-19T12:34:20;23.90;99.90
21207;DHT22;10761;48.532;8.026;2023-09-19T12:36:47;24.50;99.90
21207;DHT22;10761;48.532;8.026;2023-09-19T12:39:23;24.30;99.90
21207;DHT22;10761;48.532;8.026;2023-09-19T12:41:50;23.90;99.90
21207;DHT22;10761;48.532;8.026;2023-09-19T12:44:16;24.40;99.90
21207;DHT22;10761;48.532;8.026;2023-09-19T12:46:44;25.10;99.90
21207;DHT22;10761;48.532;8.026;2023-09-19T12:49:17;25.80;99.90
21207;DHT22;10761;48.532;8.026;2023-09-19T12:51:44;26.00;99.90
21207;DHT22;10761;48.532;8.026;2023-09-19T12:54:10;26.00;91.00
21207;DHT22;10761;48.532;8.026;2023-09-19T12:56:43;25.60;96.30
21207;DHT22;10761;48.532;8.026;2023-09-19T12:59:15;25.70;99.90
21207;DHT22;10761;48.532;8.026;2023-09-19T13:01:41;25.60;99.70
21207;DHT22;10761;48.532;8.026;2023-09-19T13:06:44;26.40;99.90
21207;DHT22;10761;48.532;8.026;2023-09-19T13:09:10;25.90;96.90
21207;DHT22;10761;48.532;8.026;2023-09-19T13:11:37;26.10;99.90
21207;DHT22;10761;48.532;8.026;2023-09-19T13:19:43;27.70;27.90
21207;DHT22;10761;48.532;8.026;2023-09-19T13:25:07;27.50;35.20
21207;DHT22;10761;48.532;8.026;2023-09-19T13:27:33;28.10;8.10
21207;DHT22;10761;48.532;8.026;2023-09-19T13:29:59;28.10;1.00
21207;DHT22;10761;48.532;8.026;2023-09-19T13:32:26;28.20;1.00
21207;DHT22;10761;48.532;8.026;2023-09-19T13:34:51;28.30;1.00
21207;DHT22;10761;48.532;8.026;2023-09-19T13:37:17;28.10;1.00
21207;DHT22;10761;48.532;8.026;2023-09-19T13:39:43;27.30;1.00
21207;DHT22;10761;48.532;8.026;2023-09-19T13:42:13;27.30;1.00
21207;DHT22;10761;48.532;8.026;2023-09-19T13:44:39;27.90;1.00
21207;DHT22;10761;48.532;8.026;2023-09-19T13:47:06;28.00;1.00
21207;DHT22;10761;48.532;8.026;2023-09-19T13:49:35;27.70;1.00
21207;DHT22;10761;48.532;8.026;2023-09-19T13:52:01;27.60;1.00
21207;DHT22;10761;48.532;8.026;2023-09-19T13:54:30;27.90;1.00
21207;DHT22;10761;48.532;8.026;2023-09-19T13:56:56;28.60;1.00
21207;DHT22;10761;48.532;8.026;2023-09-19T13:59:22;29.20;1.00
21207;DHT22;10761;48.532;8.026;2023-09-19T14:01:49;29.60;1.00
21207;DHT22;10761;48.532;8.026;2023-09-19T14:04:16;29.20;1.00
21207;DHT22;10761;48.532;8.026;2023-09-19T14:06:43;29.70;1.00
21207;DHT22;10761;48.532;8.026;2023-09-19T14:09:08;29.60;1.00
21207;DHT22;10761;48.532;8.026;2023-09-19T14:11:36;30.00;1.00
21207;DHT22;10761;48.532;8.026;2023-09-19T14:14:01;30.20;1.00
21207;DHT22;10761;48.532;8.026;2023-09-19T14:16:27;30.00;1.00
21207;DHT22;10761;48.532;8.026;2023-09-19T14:18:56;30.00;1.00
21207;DHT22;10761;48.532;8.026;2023-09-19T14:21:22;30.00;1.00
21207;DHT22;10761;48.532;8.026;2023-09-19T14:23:48;29.80;1.00
21207;DHT22;10761;48.532;8.026;2023-09-19T14:26:14;29.30;1.00
21207;DHT22;10761;48.532;8.026;2023-09-19T14:28:41;29.50;1.00
21207;DHT22;10761;48.532;8.026;2023-09-19T14:31:08;30.40;1.00
21207;DHT22;10761;48.532;8.026;2023-09-19T14:33:34;31.10;1.00
21207;DHT22;10761;48.532;8.026;2023-09-19T14:36:09;31.10;1.00
21207;DHT22;10761;48.532;8.026;2023-09-19T14:38:37;30.90;1.00
21207;DHT22;10761;48.532;8.026;2023-09-19T14:41:04;31.00;1.00
21207;DHT22;10761;48.532;8.026;2023-09-19T14:43:30;29.50;1.00
21207;DHT22;10761;48.532;8.026;2023-09-19T14:45:56;29.20;1.00
21207;DHT22;10761;48.532;8.026;2023-09-19T14:48:23;29.30;1.00
21207;DHT22;10761;48.532;8.026;2023-09-19T14:50:51;29.50;1.00
21207;DHT22;10761;48.532;8.026;2023-09-19T14:53:17;29.80;1.00
21207;DHT22;10761;48.532;8.026;2023-09-19T14:55:43;29.90;1.00
21207;DHT22;10761;48.532;8.026;2023-09-19T14:58:10;29.50;1.00
21207;DHT22;10761;48.532;8.026;2023-09-19T15:00:37;29.20;1.00
21207;DHT22;10761;48.532;8.026;2023-09-19T15:03:03;28.80;1.00
21207;DHT22;10761;48.532;8.026;2023-09-19T15:05:29;28.50;1.00
21207;DHT22;10761;48.532;8.026;2023-09-19T15:07:55;28.30;1.00
21207;DHT22;10761;48.532;8.026;2023-09-19T15:10:22;28.50;1.00
21207;DHT22;10761;48.532;8.026;2023-09-19T15:12:48;29.00;1.00
21207;DHT22;10761;48.532;8.026;2023-09-19T15:15:14;29.50;1.00
21207;DHT22;10761;48.532;8.026;2023-09-19T15:17:39;29.60;1.00
21207;DHT22;10761;48.532;8.026;2023-09-19T15:20:06;30.00;1.00
21207;DHT22;10761;48.532;8.026;2023-09-19T15:22:33;30.70;1.00
21207;DHT22;10761;48.532;8.026;2023-09-19T15:25:00;30.80;1.00
21207;DHT22;10761;48.532;8.026;2023-09-19T15:27:30;29.50;1.00
21207;DHT22;10761;48.532;8.026;2023-09-19T15:29:57;27.50;1.00
21207;DHT22;10761;48.532;8.026;2023-09-19T15:32:24;26.80;1.00
21207;DHT22;10761;48.532;8.026;2023-09-19T15:34:50;27.50;1.00
21207;DHT22;10761;48.532;8.026;2023-09-19T15:37:15;28.30;1.00
21207;DHT22;10761;48.532;8.026;2023-09-19T15:39:41;29.00;1.00
21207;DHT22;10761;48.532;8.026;2023-09-19T15:42:07;29.60;1.00
21207;DHT22;10761;48.532;8.026;2023-09-19T15:44:33;29.60;1.00
21207;DHT22;10761;48.532;8.026;2023-09-19T15:46:59;29.10;1.00
21207;DHT22;10761;48.532;8.026;2023-09-19T15:49:25;28.20;1.00
21207;DHT22;10761;48.532;8.026;2023-09-19T15:51:50;27.10;1.00
21207;DHT22;10761;48.532;8.026;2023-09-19T15:54:16;26.80;1.00
21207;DHT22;10761;48.532;8.026;2023-09-19T15:56:44;26.90;1.00
21207;DHT22;10761;48.532;8.026;2023-09-19T15:59:10;27.10;1.00
21207;DHT22;10761;48.532;8.026;2023-09-19T16:01:39;26.70;1.00
21207;DHT22;10761;48.532;8.026;2023-09-19T16:04:08;26.40;1.00
21207;DHT22;10761;48.532;8.026;2023-09-19T16:06:34;26.40;1.00
21207;DHT22;10761;48.532;8.026;2023-09-19T16:09:00;27.00;1.00
21207;DHT22;10761;48.532;8.026;2023-09-19T16:11:32;27.70;1.00
21207;DHT22;10761;48.532;8.026;2023-09-19T16:13:58;27.80;1.00
21207;DHT22;10761;48.532;8.026;2023-09-19T16:16:24;28.30;1.00
21207;DHT22;10761;48.532;8.026;2023-09-19T16:18:56;28.50;1.00
21207;DHT22;10761;48.532;8.026;2023-09-19T16:21:32;28.50;1.00
21207;DHT22;10761;48.532;8.026;2023-09-19T16:23:59;28.70;1.00
21207;DHT22;10761;48.532;8.026;2023-09-19T16:26:26;28.80;1.00
21207;DHT22;10761;48.532;8.026;2023-09-19T16:28:55;28.80;1.00
21207;DHT22;10761;48.532;8.026;2023-09-19T16:31:30;28.70;1.00
21207;DHT22;10761;48.532;8.026;2023-09-19T16:33:58;28.10;1.00
21207;DHT22;10761;48.532;8.026;2023-09-19T16:36:27;27.90;1.00
21207;DHT22;10761;48.532;8.026;2023-09-19T16:38:53;28.00;1.00
21207;DHT22;10761;48.532;8.026;2023-09-19T16:41:19;28.00;1.00
21207;DHT22;10761;48.532;8.026;2023-09-19T16:43:45;28.10;1.00
21207;DHT22;10761;48.532;8.026;2023-09-19T16:46:12;28.40;1.00
21207;DHT22;10761;48.532;8.026;2023-09-19T16:48:39;28.30;1.00
21207;DHT22;10761;48.532;8.026;2023-09-19T16:51:10;28.10;1.00